createdAt,value
2023-04-20T00:01:07.037Z,2.07
2023-04-20T00:03:35.608Z,1.70
2023-04-20T00:06:03.829Z,2.10
2023-04-20T00:08:31.533Z,1.80
2023-04-20T00:10:59.190Z,1.87
2023-04-20T00:13:27.444Z,1.57
2023-04-20T00:15:56.640Z,1.70
2023-04-20T00:18:24.454Z,1.87
2023-04-20T00:20:52.352Z,1.87
2023-04-20T00:23:20.477Z,1.70
2023-04-20T00:25:49.674Z,1.40
2023-04-20T00:28:17.333Z,2.00
2023-04-20T00:30:45.332Z,2.00
2023-04-20T00:33:14.545Z,1.90
2023-04-20T00:35:43.236Z,2.33
2023-04-20T00:38:11.085Z,1.90
2023-04-20T00:40:38.888Z,1.90
2023-04-20T00:43:13.961Z,1.90
2023-04-20T00:45:42.350Z,2.20
2023-04-20T00:48:11.290Z,1.80
2023-04-20T00:50:41.247Z,1.50
2023-04-20T00:53:09.488Z,2.20
2023-04-20T00:55:38.876Z,3.30
2023-04-20T00:58:06.943Z,2.00
2023-04-20T01:00:35.138Z,1.90
2023-04-20T01:03:03.500Z,2.47
2023-04-20T01:05:31.722Z,2.43
2023-04-20T01:08:01.124Z,2.20
2023-04-20T01:10:30.714Z,2.37
2023-04-20T01:12:58.484Z,2.43
2023-04-20T01:15:26.961Z,2.17
2023-04-20T01:17:54.746Z,2.23
2023-04-20T01:20:23.674Z,2.07
2023-04-20T01:22:54.310Z,1.90
2023-04-20T01:25:23.298Z,2.10
2023-04-20T01:27:51.027Z,2.20
2023-04-20T01:30:18.648Z,3.50
2023-04-20T01:32:46.640Z,2.30
2023-04-20T01:35:15.927Z,2.60
2023-04-20T01:37:46.120Z,2.07
2023-04-20T01:40:16.404Z,2.43
2023-04-20T01:42:44.268Z,2.00
2023-04-20T01:45:12.596Z,2.50
2023-04-20T01:47:40.420Z,2.20
2023-04-20T01:50:08.756Z,2.30
2023-04-20T01:52:36.450Z,2.57
2023-04-20T01:55:04.208Z,2.50
2023-04-20T01:57:33.499Z,1.97
2023-04-20T02:00:01.307Z,2.30
2023-04-20T02:02:29.283Z,3.07
2023-04-20T02:04:57.021Z,3.20
2023-04-20T02:07:25.013Z,2.53
2023-04-20T02:09:52.681Z,2.20
2023-04-20T02:12:20.402Z,3.83
2023-04-20T02:14:49.462Z,2.47
2023-04-20T02:17:17.285Z,2.53
2023-04-20T02:19:45.292Z,2.60
2023-04-20T02:22:12.943Z,3.10
2023-04-20T02:24:41.429Z,3.07
2023-04-20T02:27:09.620Z,2.80
2023-04-20T02:29:37.522Z,2.90
2023-04-20T02:32:08.118Z,3.07
2023-04-20T02:34:35.844Z,2.80
2023-04-20T02:37:03.523Z,3.17
2023-04-20T02:39:31.268Z,3.23
2023-04-20T02:41:59.093Z,2.73
2023-04-20T02:44:26.982Z,2.77
2023-04-20T02:46:54.934Z,2.50
2023-04-20T02:49:26.266Z,3.40
2023-04-20T02:51:54.008Z,3.53
2023-04-20T02:54:22.002Z,3.00
2023-04-20T02:56:50.659Z,3.87
2023-04-20T02:59:18.817Z,2.10
2023-04-20T03:02:01.488Z,2.93
2023-04-20T03:04:32.192Z,3.20
2023-04-20T03:07:09.396Z,3.83
2023-04-20T03:09:38.977Z,3.43
2023-04-20T03:12:18.683Z,2.50
2023-04-20T03:14:49.359Z,3.77
2023-04-20T03:17:20.116Z,4.10
2023-04-20T03:19:49.505Z,3.07
2023-04-20T03:22:19.263Z,2.83
2023-04-20T03:24:50.790Z,2.90
2023-04-20T03:27:40.542Z,3.03
2023-04-20T03:30:13.365Z,3.20
2023-04-20T03:32:42.030Z,3.23
2023-04-20T03:35:11.379Z,2.97
2023-04-20T03:37:40.910Z,3.30
2023-04-20T03:40:10.544Z,4.20
2023-04-20T03:42:38.318Z,3.57
2023-04-20T03:45:08.030Z,3.90
2023-04-20T03:47:36.035Z,3.83
2023-04-20T03:50:04.237Z,3.33
2023-04-20T03:52:33.703Z,4.27
2023-04-20T03:55:05.493Z,3.77
2023-04-20T03:57:34.175Z,4.10
2023-04-20T04:00:05.002Z,4.40
2023-04-20T04:02:45.870Z,3.50
2023-04-20T04:05:16.678Z,4.80
2023-04-20T04:07:45.799Z,4.10
2023-04-20T04:10:14.386Z,4.30
2023-04-20T04:12:42.165Z,4.87
2023-04-20T04:15:12.181Z,3.57
2023-04-20T04:17:48.762Z,4.87
2023-04-20T04:20:16.672Z,3.87
2023-04-20T04:22:46.134Z,3.70
2023-04-20T04:25:38.769Z,4.83
2023-04-20T04:28:07.354Z,4.80
2023-04-20T04:30:38.439Z,3.73
2023-04-20T04:33:10.166Z,3.67
2023-04-20T04:35:41.479Z,5.73
2023-04-20T04:38:12.730Z,4.77
2023-04-20T04:40:45.844Z,4.63
2023-04-20T04:43:13.813Z,5.30
2023-04-20T04:45:49.976Z,4.40
2023-04-20T04:48:19.786Z,4.20
2023-04-20T04:50:47.594Z,5.13
2023-04-20T04:53:16.842Z,5.63
2023-04-20T04:55:44.589Z,5.50
2023-04-20T04:58:12.325Z,4.63
2023-04-20T05:00:40.583Z,5.63
2023-04-20T05:03:08.358Z,4.77
2023-04-20T05:05:36.242Z,4.50
2023-04-20T05:08:04.203Z,5.53
2023-04-20T05:10:33.200Z,5.20
2023-04-20T05:13:00.864Z,6.43
2023-04-20T05:15:28.768Z,5.90
2023-04-20T05:17:56.494Z,5.10
2023-04-20T05:20:24.276Z,5.23
2023-04-20T05:22:51.950Z,5.43
2023-04-20T05:25:19.977Z,7.50
2023-04-20T05:27:48.962Z,6.37
2023-04-20T05:30:20.293Z,6.67
2023-04-20T05:32:51.546Z,6.10
2023-04-20T05:35:20.212Z,7.27
2023-04-20T05:37:48.366Z,6.73
2023-04-20T05:40:16.215Z,6.07
2023-04-20T05:42:43.910Z,7.30
2023-04-20T05:45:13.362Z,6.60
2023-04-20T05:47:41.045Z,6.40
2023-04-20T05:50:11.271Z,6.57
2023-04-20T05:52:38.869Z,5.50
2023-04-20T05:55:08.355Z,6.40
2023-04-20T05:57:41.821Z,7.10
2023-04-20T06:00:11.664Z,7.17
2023-04-20T06:02:44.043Z,7.30
2023-04-20T06:05:12.202Z,6.80
2023-04-20T06:07:40.387Z,6.77
2023-04-20T06:10:09.022Z,6.90
2023-04-20T06:12:36.859Z,6.40
2023-04-20T06:15:06.459Z,6.60
2023-04-20T06:17:36.324Z,7.37
2023-04-20T06:20:06.838Z,7.43
2023-04-20T06:22:34.691Z,6.50
2023-04-20T06:25:02.941Z,6.23
2023-04-20T06:27:30.574Z,7.07
2023-04-20T06:29:58.202Z,7.67
2023-04-20T06:32:25.838Z,7.93
2023-04-20T06:34:53.507Z,7.40
2023-04-20T06:37:22.407Z,6.83
2023-04-20T06:39:54.235Z,6.10
2023-04-20T06:42:21.904Z,6.90
2023-04-20T06:44:50.967Z,6.73
2023-04-20T06:47:18.801Z,8.00
2023-04-20T06:49:47.831Z,7.00
2023-04-20T06:52:15.494Z,6.60
2023-04-20T06:54:44.533Z,6.47
2023-04-20T06:57:12.286Z,6.30
2023-04-20T06:59:39.992Z,7.37
2023-04-20T07:02:08.304Z,7.27
2023-04-20T07:04:36.170Z,6.80
2023-04-20T07:07:03.817Z,7.20
2023-04-20T07:09:31.658Z,6.40
2023-04-20T07:12:00.972Z,7.80
2023-04-20T07:14:28.591Z,7.37
2023-04-20T07:16:56.210Z,6.67
2023-04-20T07:19:23.951Z,6.17
2023-04-20T07:21:51.522Z,7.43
2023-04-20T07:24:19.286Z,7.50
2023-04-20T07:26:46.907Z,7.07
2023-04-20T07:29:16.193Z,7.30
2023-04-20T07:31:44.117Z,7.53
2023-04-20T07:34:11.845Z,7.10
2023-04-20T07:36:39.840Z,5.83
2023-04-20T07:39:07.480Z,7.77
2023-04-20T07:41:35.084Z,8.00
2023-04-20T07:44:02.765Z,7.50
2023-04-20T07:46:31.899Z,7.70
2023-04-20T07:48:59.707Z,7.87
2023-04-20T07:51:30.311Z,7.37
2023-04-20T07:53:58.152Z,6.70
2023-04-20T07:56:26.079Z,7.33
2023-04-20T07:58:53.788Z,7.07
2023-04-20T08:01:24.885Z,7.30
2023-04-20T08:03:55.581Z,7.07
2023-04-20T08:06:23.771Z,8.10
2023-04-20T08:08:51.607Z,8.80
2023-04-20T08:11:19.356Z,7.60
2023-04-20T08:13:46.970Z,7.87
2023-04-20T08:16:14.748Z,7.13
2023-04-20T08:18:42.584Z,8.30
2023-04-20T08:21:11.891Z,7.40
2023-04-20T08:23:39.744Z,8.13
2023-04-20T08:26:07.588Z,8.37
2023-04-20T08:28:35.249Z,8.17
2023-04-20T08:31:03.015Z,7.83
2023-04-20T08:33:31.266Z,8.50
2023-04-20T08:35:59.022Z,8.57
2023-04-20T08:38:33.767Z,8.60
2023-04-20T08:41:01.785Z,7.67
2023-04-20T08:43:29.670Z,8.83
2023-04-20T08:45:59.570Z,8.07
2023-04-20T08:48:27.722Z,8.63
2023-04-20T08:50:55.609Z,8.70
2023-04-20T08:53:23.720Z,8.27
2023-04-20T08:55:53.199Z,8.40
2023-04-20T08:58:21.048Z,8.00
2023-04-20T09:00:48.994Z,7.70
2023-04-20T09:03:17.161Z,7.87
2023-04-20T09:05:46.460Z,8.37
2023-04-20T09:08:14.190Z,10.03
2023-04-20T09:10:43.090Z,8.63
2023-04-20T09:13:22.456Z,9.57
2023-04-20T09:15:50.436Z,8.83
2023-04-20T09:18:18.772Z,7.97
2023-04-20T09:20:46.436Z,8.87
2023-04-20T09:23:14.539Z,9.73
2023-04-20T09:25:43.524Z,8.47
2023-04-20T09:28:13.172Z,7.50
2023-04-20T09:30:41.587Z,8.27
2023-04-20T09:33:12.065Z,7.73
2023-04-20T09:35:40.505Z,8.67
2023-04-20T09:38:08.293Z,9.00
2023-04-20T09:40:36.391Z,9.93
2023-04-20T09:43:05.637Z,7.70
2023-04-20T09:45:35.163Z,8.60
2023-04-20T09:48:06.354Z,9.30
2023-04-20T09:50:47.957Z,7.60
2023-04-20T09:53:17.983Z,7.90
2023-04-20T09:55:47.077Z,8.47
2023-04-20T09:58:14.945Z,8.57
2023-04-20T10:00:44.704Z,8.20
2023-04-20T10:03:12.722Z,8.73
2023-04-20T10:05:41.020Z,10.37
2023-04-20T10:08:08.852Z,9.47
2023-04-20T10:10:47.384Z,10.27
2023-04-20T10:13:16.023Z,9.60
2023-04-20T10:15:45.222Z,8.30
2023-04-20T10:18:18.051Z,10.40
2023-04-20T10:20:46.152Z,10.10
2023-04-20T10:23:16.002Z,8.03
2023-04-20T10:25:45.463Z,7.90
2023-04-20T10:28:13.235Z,8.63
2023-04-20T10:30:53.399Z,8.13
2023-04-20T10:33:22.814Z,8.00
2023-04-20T10:35:51.665Z,8.33
2023-04-20T10:38:30.271Z,8.80
2023-04-20T10:40:58.204Z,8.43
2023-04-20T10:43:25.891Z,8.90
2023-04-20T10:45:55.010Z,9.43
2023-04-20T10:48:22.641Z,7.20
2023-04-20T10:50:50.327Z,8.67
2023-04-20T10:53:22.928Z,8.17
2023-04-20T10:55:59.914Z,7.53
2023-04-20T10:58:27.685Z,7.97
2023-04-20T11:01:00.462Z,8.37
2023-04-20T11:03:32.899Z,8.17
2023-04-20T11:06:03.563Z,7.33
2023-04-20T11:08:41.594Z,7.47
2023-04-20T11:11:19.274Z,7.40
2023-04-20T11:13:47.395Z,7.53
2023-04-20T11:16:18.697Z,7.80
2023-04-20T11:18:51.904Z,7.43
2023-04-20T11:21:20.191Z,8.50
2023-04-20T11:23:48.254Z,7.67
2023-04-20T11:26:16.033Z,7.43
2023-04-20T11:28:55.878Z,9.37
2023-04-20T11:31:28.045Z,9.47
2023-04-20T11:33:55.895Z,8.90
2023-04-20T11:36:25.070Z,8.33
2023-04-20T11:38:52.745Z,9.50
2023-04-20T11:41:21.666Z,9.77
2023-04-20T11:43:49.913Z,8.30
2023-04-20T11:46:18.691Z,8.70
2023-04-20T11:48:49.067Z,8.63
2023-04-20T11:51:16.808Z,8.80
2023-04-20T11:53:44.645Z,9.37
2023-04-20T11:56:12.432Z,8.23
2023-04-20T11:58:40.191Z,10.20
2023-04-20T12:01:07.890Z,10.10
2023-04-20T12:03:35.766Z,9.70
2023-04-20T12:06:05.222Z,9.47
2023-04-20T12:08:33.006Z,10.00
2023-04-20T12:11:00.924Z,9.53
2023-04-20T12:13:28.588Z,11.27
2023-04-20T12:15:56.431Z,12.60
2023-04-20T12:18:24.293Z,10.47
2023-04-20T12:20:52.041Z,10.73
2023-04-20T12:23:21.028Z,11.83
2023-04-20T12:25:49.391Z,10.33
2023-04-20T12:28:17.092Z,10.17
2023-04-20T12:30:45.130Z,10.80
2023-04-20T12:33:12.786Z,10.80
2023-04-20T12:35:40.490Z,10.27
2023-04-20T12:38:08.100Z,10.57
2023-04-20T12:40:37.249Z,11.43
2023-04-20T12:43:04.885Z,12.17
2023-04-20T12:45:32.777Z,10.80
2023-04-20T12:48:00.865Z,10.50
2023-04-20T12:50:28.784Z,13.37
2023-04-20T12:52:58.436Z,12.00
2023-04-20T12:55:26.945Z,12.00
2023-04-20T12:57:56.032Z,11.00
2023-04-20T13:00:24.051Z,11.17
2023-04-20T13:02:52.139Z,11.07
2023-04-20T13:05:20.501Z,11.60
2023-04-20T13:07:48.226Z,11.00
2023-04-20T13:10:17.237Z,10.87
2023-04-20T13:12:44.934Z,11.07
2023-04-20T13:15:14.236Z,10.50
2023-04-20T13:17:42.008Z,9.87
2023-04-20T13:20:10.798Z,11.20
2023-04-20T13:22:50.437Z,10.47
2023-04-20T13:25:22.324Z,11.70
2023-04-20T13:27:50.275Z,10.90
2023-04-20T13:30:19.393Z,11.40
2023-04-20T13:32:47.123Z,10.67
2023-04-20T13:35:14.842Z,11.20
2023-04-20T13:37:43.091Z,12.00
2023-04-20T13:40:11.541Z,11.40
2023-04-20T13:42:39.223Z,11.53
2023-04-20T13:45:08.151Z,12.03
2023-04-20T13:47:38.354Z,11.50
2023-04-20T13:50:06.940Z,11.37
2023-04-20T13:52:34.554Z,12.07
2023-04-20T13:55:02.407Z,11.70
2023-04-20T13:57:31.549Z,10.53
2023-04-20T14:00:00.863Z,11.67
2023-04-20T14:02:29.288Z,11.80
2023-04-20T14:04:58.501Z,12.10
2023-04-20T14:07:26.730Z,11.07
2023-04-20T14:09:56.430Z,11.10
2023-04-20T14:12:24.256Z,11.97
2023-04-20T14:14:52.138Z,11.50
2023-04-20T14:17:19.917Z,12.70
2023-04-20T14:19:47.685Z,11.60
2023-04-20T14:22:16.798Z,11.97
2023-04-20T14:24:45.257Z,12.30
2023-04-20T14:27:12.981Z,11.63
2023-04-20T14:29:40.627Z,12.70
2023-04-20T14:32:08.256Z,11.60
2023-04-20T14:34:35.865Z,12.77
2023-04-20T14:37:03.526Z,11.90
2023-04-20T14:39:32.618Z,13.17
2023-04-20T14:42:01.180Z,12.77
2023-04-20T14:44:28.766Z,12.23
2023-04-20T14:46:57.100Z,11.10
2023-04-20T14:49:24.917Z,10.43
2023-04-20T14:51:52.577Z,11.37
2023-04-20T14:54:20.446Z,11.70
2023-04-20T14:56:49.862Z,12.27
2023-04-20T14:59:17.585Z,11.80
2023-04-20T15:01:55.149Z,11.27
2023-04-20T15:04:29.306Z,11.67
2023-04-20T15:06:57.150Z,10.60
2023-04-20T15:09:24.935Z,13.07
2023-04-20T15:11:53.897Z,11.80
2023-04-20T15:14:21.594Z,13.00
2023-04-20T15:16:51.917Z,10.80
2023-04-20T15:19:20.296Z,11.60
2023-04-20T15:21:48.174Z,11.53
2023-04-20T15:24:16.348Z,11.70
2023-04-20T15:26:44.380Z,10.83
2023-04-20T15:29:13.600Z,10.60
2023-04-20T15:31:43.235Z,11.13
2023-04-20T15:34:14.971Z,9.87
2023-04-20T15:36:43.656Z,9.97
2023-04-20T15:39:11.439Z,9.47
2023-04-20T15:41:39.212Z,9.10
2023-04-20T15:44:07.245Z,9.87
2023-04-20T15:46:37.151Z,9.87
2023-04-20T15:49:04.927Z,10.80
2023-04-20T15:51:32.630Z,9.90
2023-04-20T15:54:00.405Z,10.80
2023-04-20T15:56:28.120Z,9.83
2023-04-20T15:58:55.779Z,9.17
2023-04-20T16:01:23.521Z,8.90
2023-04-20T16:03:52.808Z,9.30
2023-04-20T16:06:20.823Z,8.37
2023-04-20T16:08:53.119Z,9.50
2023-04-20T16:11:21.688Z,10.00
2023-04-20T16:13:49.460Z,8.40
2023-04-20T16:16:17.236Z,9.93
2023-04-20T16:18:44.960Z,9.27
2023-04-20T16:21:14.047Z,9.80
2023-04-20T16:23:41.809Z,9.07
2023-04-20T16:26:09.613Z,9.73
2023-04-20T16:28:38.009Z,9.67
2023-04-20T16:31:06.066Z,9.07
2023-04-20T16:33:35.489Z,8.70
2023-04-20T16:36:03.276Z,9.20
2023-04-20T16:38:32.331Z,8.10
2023-04-20T16:41:00.171Z,9.17
2023-04-20T16:43:27.948Z,10.00
2023-04-20T16:45:55.639Z,8.67
2023-04-20T16:48:23.580Z,9.00
2023-04-20T16:50:51.308Z,9.03
2023-04-20T16:53:18.930Z,10.40
2023-04-20T16:55:47.899Z,9.90
2023-04-20T16:58:15.552Z,9.97
2023-04-20T17:00:43.316Z,10.30
2023-04-20T17:03:13.559Z,8.97
2023-04-20T17:05:42.319Z,10.50
2023-04-20T17:08:10.199Z,9.93
2023-04-20T17:10:38.531Z,9.27
2023-04-20T17:13:08.002Z,9.20
2023-04-20T17:15:35.742Z,9.37
2023-04-20T17:18:04.590Z,10.60
2023-04-20T17:20:32.638Z,8.73
2023-04-20T17:23:02.717Z,9.10
2023-04-20T17:25:30.678Z,9.90
2023-04-20T17:27:58.704Z,9.33
2023-04-20T17:30:28.418Z,9.03
2023-04-20T17:32:57.263Z,9.27
2023-04-20T17:35:25.471Z,10.70
2023-04-20T17:37:53.473Z,9.70
2023-04-20T17:40:21.597Z,9.83
2023-04-20T17:42:49.555Z,9.70
2023-04-20T17:45:17.461Z,9.67
2023-04-20T17:47:46.827Z,10.50
2023-04-20T17:50:16.396Z,9.80
2023-04-20T17:52:44.680Z,9.83
2023-04-20T17:55:12.570Z,9.97
2023-04-20T17:57:40.679Z,9.63
2023-04-20T18:00:11.698Z,10.53
2023-04-20T18:02:39.888Z,10.10
2023-04-20T18:05:09.866Z,9.93
2023-04-20T18:07:37.576Z,8.97
2023-04-20T18:10:06.010Z,8.33
2023-04-20T18:12:33.934Z,9.70
2023-04-20T18:15:01.690Z,9.00
2023-04-20T18:17:29.754Z,9.67
2023-04-20T18:19:57.469Z,9.33
2023-04-20T18:22:26.901Z,9.40
2023-04-20T18:24:54.647Z,10.13
2023-04-20T18:27:22.440Z,9.90
2023-04-20T18:29:50.515Z,10.50
2023-04-20T18:32:18.256Z,9.83
2023-04-20T18:34:46.392Z,8.47
2023-04-20T18:37:14.948Z,9.60
2023-04-20T18:39:44.166Z,9.60
2023-04-20T18:42:11.988Z,10.77
2023-04-20T18:44:39.736Z,10.90
2023-04-20T18:47:07.553Z,10.90
2023-04-20T18:49:35.494Z,9.77
2023-04-20T18:52:03.321Z,11.63
2023-04-20T18:54:31.161Z,9.03
2023-04-20T18:57:00.204Z,10.30
2023-04-20T18:59:27.951Z,9.53
2023-04-20T19:01:55.936Z,10.53
2023-04-20T19:04:23.886Z,9.60
2023-04-20T19:06:51.966Z,9.40
2023-04-20T19:09:19.688Z,10.13
2023-04-20T19:11:47.642Z,10.33
2023-04-20T19:14:17.177Z,10.33
2023-04-20T19:16:45.324Z,11.20
2023-04-20T19:19:13.120Z,10.37
2023-04-20T19:21:40.809Z,9.77
2023-04-20T19:24:08.617Z,9.07
2023-04-20T19:26:41.949Z,9.57
2023-04-20T19:29:12.109Z,10.37
2023-04-20T19:31:42.163Z,10.53
2023-04-20T19:34:13.316Z,9.07
2023-04-20T19:36:41.820Z,9.33
2023-04-20T19:39:10.090Z,10.60
2023-04-20T19:41:37.894Z,9.60
2023-04-20T19:44:06.593Z,10.73
2023-04-20T19:46:34.931Z,10.00
2023-04-20T19:49:04.206Z,9.80
2023-04-20T19:51:32.485Z,12.53
2023-04-20T19:54:01.538Z,10.27
2023-04-20T19:56:29.256Z,9.50
2023-04-20T19:58:57.027Z,9.67
2023-04-20T20:01:24.805Z,12.50
2023-04-20T20:03:52.852Z,10.37
2023-04-20T20:06:23.614Z,10.80
2023-04-20T20:08:51.601Z,11.73
2023-04-20T20:11:19.441Z,11.53
2023-04-20T20:13:47.085Z,10.63
2023-04-20T20:16:14.821Z,11.87
2023-04-20T20:18:42.684Z,11.30
2023-04-20T20:21:10.757Z,11.17
2023-04-20T20:23:39.923Z,11.77
2023-04-20T20:26:07.803Z,10.63
2023-04-20T20:28:35.947Z,11.70
2023-04-20T20:31:03.896Z,11.30
2023-04-20T20:33:32.054Z,11.40
2023-04-20T20:36:01.503Z,11.57
2023-04-20T20:38:31.034Z,11.13
2023-04-20T20:41:00.249Z,11.27
2023-04-20T20:43:28.574Z,11.10
2023-04-20T20:45:56.508Z,12.50
2023-04-20T20:48:24.255Z,10.90
2023-04-20T20:50:52.055Z,11.97
2023-04-20T20:53:20.498Z,11.27
2023-04-20T20:55:48.314Z,11.10
2023-04-20T20:58:17.507Z,11.60
2023-04-20T21:00:46.890Z,11.17
2023-04-20T21:03:15.514Z,11.50
2023-04-20T21:05:43.984Z,11.50
2023-04-20T21:08:12.081Z,13.40
2023-04-20T21:10:40.063Z,11.67
2023-04-20T21:13:07.972Z,11.03
2023-04-20T21:15:37.186Z,12.90
2023-04-20T21:18:05.411Z,12.07
2023-04-20T21:20:34.739Z,11.40
2023-04-20T21:23:03.024Z,12.30
2023-04-20T21:25:31.103Z,12.33
2023-04-20T21:27:58.822Z,16.60
2023-04-20T21:30:28.224Z,13.17
2023-04-20T21:32:57.468Z,13.43
2023-04-20T21:35:25.431Z,14.43
2023-04-20T21:37:53.294Z,13.80
2023-04-20T21:40:21.302Z,13.10
2023-04-20T21:42:49.078Z,13.73
2023-04-20T21:45:16.904Z,11.57
2023-04-20T21:47:44.902Z,14.10
2023-04-20T21:50:14.374Z,15.27
2023-04-20T21:52:42.579Z,14.87
2023-04-20T21:55:11.425Z,14.77
2023-04-20T21:57:39.559Z,12.10
2023-04-20T22:00:09.583Z,12.47
2023-04-20T22:02:43.601Z,13.57
2023-04-20T22:05:11.701Z,13.03
2023-04-20T22:07:41.590Z,12.57
2023-04-20T22:10:10.939Z,13.07
2023-04-20T22:12:40.624Z,11.67
2023-04-20T22:15:10.988Z,12.43
2023-04-20T22:17:39.095Z,12.63
2023-04-20T22:20:09.103Z,11.30
2023-04-20T22:22:38.272Z,13.00
2023-04-20T22:25:09.042Z,12.70
2023-04-20T22:27:38.647Z,11.87
2023-04-20T22:30:09.584Z,11.73
2023-04-20T22:32:37.997Z,11.60
2023-04-20T22:35:07.119Z,13.20
2023-04-20T22:37:35.051Z,12.83
2023-04-20T22:40:05.802Z,12.60
2023-04-20T22:42:35.996Z,11.83
2023-04-20T22:45:04.175Z,13.07
2023-04-20T22:47:32.334Z,13.90
2023-04-20T22:50:00.357Z,13.80
2023-04-20T22:52:28.078Z,12.27
2023-04-20T22:54:55.867Z,13.47
2023-04-20T22:57:23.914Z,13.63
2023-04-20T22:59:53.230Z,12.30
2023-04-20T23:02:21.481Z,12.93
2023-04-20T23:04:49.290Z,13.67
2023-04-20T23:07:17.544Z,14.13
2023-04-20T23:09:45.557Z,14.77
2023-04-20T23:12:13.274Z,13.80
2023-04-20T23:14:42.732Z,16.60
2023-04-20T23:17:11.874Z,15.13
2023-04-20T23:19:40.361Z,12.57
2023-04-20T23:22:08.836Z,13.90
2023-04-20T23:24:36.730Z,12.70
2023-04-20T23:27:04.533Z,12.60
2023-04-20T23:29:33.050Z,12.40
2023-04-20T23:32:01.396Z,13.10
2023-04-20T23:34:30.771Z,13.30
2023-04-20T23:36:58.542Z,11.10
2023-04-20T23:39:26.415Z,13.67
2023-04-20T23:41:54.079Z,13.00
2023-04-20T23:44:21.784Z,11.10
2023-04-20T23:46:49.596Z,12.07
2023-04-20T23:49:17.394Z,11.17
2023-04-20T23:51:46.662Z,11.90
2023-04-20T23:54:14.354Z,13.07
2023-04-20T23:56:42.099Z,11.07
2023-04-20T23:59:09.984Z,10.93
